DARK66 KDYS-KDYS
Flight info
| Callsign | DARK66 |
|---|---|
| Flight time | 1h 13m |
| Altitude | 1000 |
| Route | TQA BGS033012 IR128/D0100 MAF109060 SJT |
| Aircraft | B1/H-VGDW/C |
Departure
| Time | 2026-04-21 15:15 |
|---|---|
| Airport | Dyess Air Force Base (KDYS) |
Arrival
| Time | 2026-04-21 16:28 |
|---|---|
| Airport | Dyess Air Force Base (KDYS) |
| Time | Latitude | Longitude | Altitude | Speed | Heading |
|---|---|---|---|---|---|
| 2026-04-21 14:58 | 32.41587 | -99.84883 | 1848 ft | 0 kts | 79° |
| 2026-04-21 15:03 | 32.41591 | -99.84859 | 1848 ft | 9 kts | 76° |
| 2026-04-21 15:03 | 32.41632 | -99.84823 | 1848 ft | 11 kts | 355° |
| 2026-04-21 15:03 | 32.41707 | -99.84839 | 1848 ft | 12 kts | 348° |
| 2026-04-21 15:03 | 32.41779 | -99.84856 | 1845 ft | 7 kts | 349° |
| 2026-04-21 15:04 | 32.41831 | -99.84867 | 1846 ft | 8 kts | 349° |
| 2026-04-21 15:04 | 32.41867 | -99.84890 | 1845 ft | 6 kts | 293° |
| 2026-04-21 15:04 | 32.41865 | -99.84945 | 1846 ft | 5 kts | 259° |
| 2026-04-21 15:04 | 32.41861 | -99.85004 | 1845 ft | 7 kts | 288° |
| 2026-04-21 15:05 | 32.41892 | -99.85026 | 1846 ft | 10 kts | 346° |
| 2026-04-21 15:05 | 32.42124 | -99.85080 | 1846 ft | 15 kts | 348° |
| 2026-04-21 15:05 | 32.42240 | -99.85107 | 1846 ft | 15 kts | 347° |
| 2026-04-21 15:06 | 32.42341 | -99.85131 | 1845 ft | 14 kts | 348° |
| 2026-04-21 15:06 | 32.42459 | -99.85159 | 1845 ft | 16 kts | 349° |
| 2026-04-21 15:06 | 32.42579 | -99.85186 | 1845 ft | 20 kts | 349° |
| 2026-04-21 15:06 | 32.42694 | -99.85212 | 1846 ft | 20 kts | 349° |
| 2026-04-21 15:07 | 32.42822 | -99.85244 | 1850 ft | 17 kts | 348° |
| 2026-04-21 15:07 | 32.42937 | -99.85269 | 1848 ft | 21 kts | 349° |
| 2026-04-21 15:07 | 32.43049 | -99.85297 | 1847 ft | 16 kts | 348° |
| 2026-04-21 15:07 | 32.43136 | -99.85317 | 1849 ft | 12 kts | 349° |
| 2026-04-21 15:08 | 32.43232 | -99.85349 | 1850 ft | 16 kts | 341° |
| 2026-04-21 15:08 | 32.43335 | -99.85377 | 1847 ft | 18 kts | 349° |
| 2026-04-21 15:08 | 32.43468 | -99.85408 | 1849 ft | 17 kts | 348° |
| 2026-04-21 15:08 | 32.43583 | -99.85434 | 1845 ft | 16 kts | 348° |
| 2026-04-21 15:09 | 32.43699 | -99.85462 | 1846 ft | 18 kts | 349° |
| 2026-04-21 15:09 | 32.43816 | -99.85490 | 1846 ft | 14 kts | 347° |
| 2026-04-21 15:09 | 32.43913 | -99.85538 | 1845 ft | 15 kts | 310° |
| 2026-04-21 15:09 | 32.43950 | -99.85623 | 1847 ft | 12 kts | 313° |
| 2026-04-21 15:10 | 32.43981 | -99.85694 | 1849 ft | 11 kts | 270° |
| 2026-04-21 15:10 | 32.43977 | -99.85730 | 1849 ft | 0 kts | 260° |
| 2026-04-21 15:12 | 32.43977 | -99.85731 | 1849 ft | 1 kts | 260° |
| 2026-04-21 15:12 | 32.43964 | -99.85760 | 1848 ft | 7 kts | 229° |
| 2026-04-21 15:12 | 32.43938 | -99.85784 | 1850 ft | 0 kts | 208° |
| 2026-04-21 15:13 | 32.43935 | -99.85785 | 1851 ft | 3 kts | 208° |
| 2026-04-21 15:13 | 32.43909 | -99.85806 | 1852 ft | 8 kts | 224° |
| 2026-04-21 15:13 | 32.43849 | -99.85862 | 1846 ft | 13 kts | 200° |
| 2026-04-21 15:13 | 32.43820 | -99.85867 | 1848 ft | 1 kts | 169° |
| 2026-04-21 15:14 | 32.43593 | -99.85813 | 1849 ft | 73 kts | 169° |
| 2026-04-21 15:14 | 32.42801 | -99.85628 | 1848 ft | 156 kts | 169° |
| 2026-04-21 15:14 | 32.41511 | -99.85327 | 2041 ft | 218 kts | 168° |
| 2026-04-21 15:14 | 32.39752 | -99.84899 | 2185 ft | 294 kts | 168° |
| 2026-04-21 15:15 | 32.37647 | -99.84369 | 2848 ft | 329 kts | 168° |
| 2026-04-21 15:15 | 32.35297 | -99.83834 | 2979 ft | 354 kts | 170° |
| 2026-04-21 15:15 | 32.32971 | -99.83329 | 3015 ft | 341 kts | 171° |
| 2026-04-21 15:15 | 32.30631 | -99.82881 | 3503 ft | 322 kts | 173° |
| 2026-04-21 15:16 | 32.28740 | -99.82559 | 4340 ft | 238 kts | 173° |
| 2026-04-21 15:16 | 32.27192 | -99.82305 | 5335 ft | 224 kts | 175° |
| 2026-04-21 15:16 | 32.25613 | -99.82050 | 6159 ft | 239 kts | 178° |
| 2026-04-21 15:16 | 32.24140 | -99.82487 | 7168 ft | 206 kts | 235° |
| 2026-04-21 15:17 | 32.23794 | -99.84105 | 7974 ft | 222 kts | 283° |
| 2026-04-21 15:17 | 32.24395 | -99.85889 | 8731 ft | 246 kts | 297° |
| 2026-04-21 15:17 | 32.25079 | -99.87744 | 9789 ft | 246 kts | 290° |
| 2026-04-21 15:17 | 32.25556 | -99.89574 | 10922 ft | 223 kts | 284° |
| 2026-04-21 15:18 | 32.25907 | -99.91372 | 11779 ft | 231 kts | 283° |
| 2026-04-21 15:18 | 32.26304 | -99.93420 | 11874 ft | 287 kts | 282° |
| 2026-04-21 15:18 | 32.26749 | -99.96013 | 11908 ft | 357 kts | 282° |
| 2026-04-21 15:18 | 32.27278 | -99.99155 | 11953 ft | 398 kts | 281° |
| 2026-04-21 15:19 | 32.27845 | -100.02309 | 11974 ft | 383 kts | 282° |
| 2026-04-21 15:19 | 32.28415 | -100.05161 | 11987 ft | 342 kts | 285° |
| 2026-04-21 15:19 | 32.29026 | -100.07828 | 11957 ft | 333 kts | 286° |
| 2026-04-21 15:19 | 32.29648 | -100.10570 | 11962 ft | 367 kts | 284° |
| 2026-04-21 15:20 | 32.30306 | -100.13681 | 11972 ft | 418 kts | 284° |
| 2026-04-21 15:20 | 32.31028 | -100.17277 | 11968 ft | 475 kts | 283° |
| 2026-04-21 15:20 | 32.31770 | -100.21288 | 12029 ft | 489 kts | 282° |
| 2026-04-21 15:20 | 32.32495 | -100.25002 | 12014 ft | 461 kts | 284° |
| 2026-04-21 15:21 | 32.33251 | -100.28657 | 12020 ft | 462 kts | 283° |
| 2026-04-21 15:21 | 32.34000 | -100.32346 | 12063 ft | 467 kts | 283° |
| 2026-04-21 15:21 | 32.34786 | -100.36296 | 12055 ft | 521 kts | 283° |
| 2026-04-21 15:21 | 32.35643 | -100.40646 | 12092 ft | 559 kts | 283° |
| 2026-04-21 15:22 | 32.36562 | -100.45075 | 12134 ft | 561 kts | 284° |
| 2026-04-21 15:22 | 32.37493 | -100.49584 | 12070 ft | 575 kts | 283° |
| 2026-04-21 15:22 | 32.38416 | -100.54263 | 12057 ft | 576 kts | 283° |
| 2026-04-21 15:22 | 32.39310 | -100.58975 | 12065 ft | 595 kts | 282° |
| 2026-04-21 15:23 | 32.39887 | -100.62127 | 12028 ft | 586 kts | 282° |
| 2026-04-21 15:23 | 32.41089 | -100.68389 | 12007 ft | 584 kts | 283° |
| 2026-04-21 15:23 | 32.41715 | -100.71451 | 12001 ft | 563 kts | 284° |
| 2026-04-21 15:23 | 32.42640 | -100.75972 | 11990 ft | 578 kts | 283° |
| 2026-04-21 15:24 | 32.43552 | -100.80651 | 11937 ft | 586 kts | 283° |
| 2026-04-21 15:24 | 32.44460 | -100.85471 | 11974 ft | 607 kts | 282° |
| 2026-04-21 15:24 | 32.45369 | -100.90212 | 11975 ft | 585 kts | 283° |
| 2026-04-21 15:24 | 32.46238 | -100.94710 | 11955 ft | 553 kts | 283° |
| 2026-04-21 15:25 | 32.47162 | -100.99312 | 11956 ft | 586 kts | 283° |
| 2026-04-21 15:25 | 32.48068 | -101.04005 | 11983 ft | 585 kts | 283° |
| 2026-04-21 15:25 | 32.48952 | -101.08547 | 11928 ft | 557 kts | 283° |
| 2026-04-21 15:25 | 32.49864 | -101.13043 | 11912 ft | 577 kts | 283° |
| 2026-04-21 15:26 | 32.50761 | -101.17791 | 11935 ft | 598 kts | 283° |
| 2026-04-21 15:26 | 32.51646 | -101.22483 | 11903 ft | 559 kts | 283° |
| 2026-04-21 15:26 | 32.52710 | -101.27050 | 10968 ft | 594 kts | 292° |
| 2026-04-21 15:26 | 32.55085 | -101.30930 | 10043 ft | 557 kts | 314° |
| 2026-04-21 15:27 | 32.58175 | -101.33610 | 9945 ft | 530 kts | 332° |
| 2026-04-21 15:27 | 32.61676 | -101.35346 | 9875 ft | 562 kts | 338° |
| 2026-04-21 15:27 | 32.65264 | -101.36884 | 9927 ft | 537 kts | 340° |
| 2026-04-21 15:27 | 32.68908 | -101.38337 | 9876 ft | 559 kts | 340° |
| 2026-04-21 15:28 | 32.72529 | -101.39794 | 9842 ft | 541 kts | 340° |
| 2026-04-21 15:28 | 32.76186 | -101.41214 | 9916 ft | 566 kts | 342° |
| 2026-04-21 15:28 | 32.79993 | -101.42467 | 9963 ft | 570 kts | 345° |
| 2026-04-21 15:28 | 32.83709 | -101.43547 | 9830 ft | 548 kts | 345° |
| 2026-04-21 15:29 | 32.87342 | -101.44590 | 9907 ft | 533 kts | 345° |
| 2026-04-21 15:29 | 32.90987 | -101.45619 | 9655 ft | 529 kts | 346° |
| 2026-04-21 15:29 | 32.94575 | -101.46600 | 8218 ft | 544 kts | 346° |
| 2026-04-21 15:29 | 32.98220 | -101.47826 | 6146 ft | 547 kts | 336° |
| 2026-04-21 15:30 | 33.01529 | -101.50498 | 3537 ft | 606 kts | 314° |
| 2026-04-21 15:30 | 33.03815 | -101.54553 | 3287 ft | 558 kts | 296° |
| 2026-04-21 15:30 | 33.04949 | -101.58807 | 3284 ft | 549 kts | 280° |
| 2026-04-21 15:30 | 33.05750 | -101.63444 | 3285 ft | 593 kts | 281° |
| 2026-04-21 15:31 | 33.06191 | -101.68301 | 3445 ft | 589 kts | 268° |
| 2026-04-21 15:31 | 33.05710 | -101.73109 | 3556 ft | 564 kts | 256° |
| 2026-04-21 15:31 | 33.04207 | -101.77427 | 3538 ft | 570 kts | 238° |
| 2026-04-21 15:31 | 33.01857 | -101.81292 | 3466 ft | 579 kts | 233° |
| 2026-04-21 15:32 | 32.99604 | -101.85069 | 3482 ft | 554 kts | 234° |
| 2026-04-21 15:32 | 32.97294 | -101.88771 | 3505 ft | 549 kts | 232° |
| 2026-04-21 15:32 | 32.95269 | -101.92533 | 3580 ft | 556 kts | 241° |
| 2026-04-21 15:32 | 32.93977 | -101.96951 | 3581 ft | 567 kts | 258° |
| 2026-04-21 15:33 | 32.93605 | -102.01616 | 3510 ft | 562 kts | 265° |
| 2026-04-21 15:33 | 32.93349 | -102.06247 | 3531 ft | 553 kts | 265° |
| 2026-04-21 15:33 | 32.93144 | -102.10802 | 3581 ft | 556 kts | 267° |
| 2026-04-21 15:33 | 32.93046 | -102.15440 | 3630 ft | 564 kts | 268° |
| 2026-04-21 15:34 | 32.93110 | -102.20067 | 3637 ft | 546 kts | 273° |
| 2026-04-21 15:34 | 32.93466 | -102.24593 | 3627 ft | 544 kts | 276° |
| 2026-04-21 15:34 | 32.93990 | -102.28964 | 3610 ft | 540 kts | 279° |
| 2026-04-21 15:34 | 32.94906 | -102.33320 | 3574 ft | 550 kts | 290° |
| 2026-04-21 15:35 | 32.96849 | -102.37160 | 3597 ft | 535 kts | 312° |
| 2026-04-21 15:35 | 32.99432 | -102.40297 | 3646 ft | 540 kts | 314° |
| 2026-04-21 15:35 | 33.02027 | -102.43747 | 3704 ft | 571 kts | 309° |
| 2026-04-21 15:35 | 33.04658 | -102.47375 | 3797 ft | 584 kts | 310° |
| 2026-04-21 15:36 | 33.07255 | -102.50935 | 3823 ft | 569 kts | 309° |
| 2026-04-21 15:36 | 33.09765 | -102.54559 | 3866 ft | 578 kts | 309° |
| 2026-04-21 15:36 | 33.12258 | -102.58012 | 3866 ft | 554 kts | 310° |
| 2026-04-21 15:36 | 33.14799 | -102.61580 | 3853 ft | 571 kts | 309° |
| 2026-04-21 15:37 | 33.17317 | -102.65150 | 3919 ft | 548 kts | 309° |
| 2026-04-21 15:37 | 33.19917 | -102.68563 | 4027 ft | 563 kts | 314° |
| 2026-04-21 15:37 | 33.22758 | -102.71874 | 4056 ft | 578 kts | 315° |
| 2026-04-21 15:37 | 33.25621 | -102.75320 | 4079 ft | 561 kts | 314° |
| 2026-04-21 15:38 | 33.28359 | -102.78636 | 4086 ft | 567 kts | 313° |
| 2026-04-21 15:38 | 33.31090 | -102.82029 | 4195 ft | 575 kts | 310° |
| 2026-04-21 15:38 | 33.33370 | -102.85938 | 4458 ft | 571 kts | 299° |
| 2026-04-21 15:38 | 33.35371 | -102.90035 | 4385 ft | 560 kts | 298° |
| 2026-04-21 15:39 | 33.37266 | -102.93981 | 4220 ft | 516 kts | 302° |
| 2026-04-21 15:39 | 33.40106 | -102.96828 | 4157 ft | 563 kts | 334° |
| 2026-04-21 15:39 | 33.43907 | -102.97963 | 4251 ft | 564 kts | 350° |
| 2026-04-21 15:39 | 33.47863 | -102.98684 | 4229 ft | 595 kts | 351° |
| 2026-04-21 15:40 | 33.52066 | -102.99459 | 4279 ft | 615 kts | 352° |
| 2026-04-21 15:40 | 33.56232 | -102.99082 | 4224 ft | 604 kts | 22° |
| 2026-04-21 15:40 | 33.59328 | -102.95890 | 4286 ft | 587 kts | 46° |
| 2026-04-21 15:40 | 33.62131 | -102.92461 | 4258 ft | 577 kts | 46° |
| 2026-04-21 15:41 | 33.65066 | -102.89279 | 4534 ft | 566 kts | 32° |
| 2026-04-21 15:41 | 33.68714 | -102.87611 | 4308 ft | 582 kts | 5° |
| 2026-04-21 15:41 | 33.72796 | -102.88101 | 4330 ft | 575 kts | 349° |
| 2026-04-21 15:41 | 33.76653 | -102.88850 | 4260 ft | 563 kts | 351° |
| 2026-04-21 15:42 | 33.80532 | -102.89775 | 4345 ft | 569 kts | 337° |
| 2026-04-21 15:42 | 33.83003 | -102.93273 | 4436 ft | 559 kts | 284° |
| 2026-04-21 15:42 | 33.82852 | -102.97813 | 4351 ft | 520 kts | 254° |
| 2026-04-21 15:42 | 33.81891 | -103.02017 | 4257 ft | 544 kts | 252° |
| 2026-04-21 15:43 | 33.80665 | -103.06422 | 4240 ft | 563 kts | 250° |
| 2026-04-21 15:43 | 33.79385 | -103.11019 | 4372 ft | 580 kts | 251° |
| 2026-04-21 15:43 | 33.78080 | -103.15468 | 4478 ft | 558 kts | 246° |
| 2026-04-21 15:43 | 33.75806 | -103.19058 | 4381 ft | 512 kts | 210° |
| 2026-04-21 15:44 | 33.72317 | -103.20182 | 4365 ft | 531 kts | 189° |
| 2026-04-21 15:44 | 33.68738 | -103.21224 | 4432 ft | 526 kts | 199° |
| 2026-04-21 15:44 | 33.65267 | -103.23072 | 4500 ft | 568 kts | 208° |
| 2026-04-21 15:44 | 33.61813 | -103.25479 | 4491 ft | 589 kts | 212° |
| 2026-04-21 15:45 | 33.58440 | -103.28119 | 4416 ft | 581 kts | 213° |
| 2026-04-21 15:45 | 33.54982 | -103.30898 | 4462 ft | 607 kts | 214° |
| 2026-04-21 15:45 | 33.51631 | -103.33521 | 4438 ft | 572 kts | 212° |
| 2026-04-21 15:45 | 33.48327 | -103.36066 | 4455 ft | 566 kts | 213° |
| 2026-04-21 15:46 | 33.45050 | -103.38677 | 4510 ft | 564 kts | 213° |
| 2026-04-21 15:46 | 33.41815 | -103.41271 | 4503 ft | 553 kts | 214° |
| 2026-04-21 15:46 | 33.38635 | -103.43814 | 4487 ft | 547 kts | 213° |
| 2026-04-21 15:46 | 33.35416 | -103.46277 | 4680 ft | 558 kts | 213° |
| 2026-04-21 15:47 | 33.32067 | -103.48905 | 4594 ft | 595 kts | 214° |
| 2026-04-21 15:47 | 33.28683 | -103.51714 | 4558 ft | 599 kts | 214° |
| 2026-04-21 15:47 | 33.25256 | -103.54334 | 4514 ft | 579 kts | 209° |
| 2026-04-21 15:47 | 33.21783 | -103.56790 | 4596 ft | 575 kts | 209° |
| 2026-04-21 15:48 | 33.18346 | -103.59160 | 4586 ft | 583 kts | 201° |
| 2026-04-21 15:48 | 33.14756 | -103.60112 | 4546 ft | 464 kts | 185° |
| 2026-04-21 15:48 | 33.11721 | -103.60611 | 4520 ft | 400 kts | 189° |
| 2026-04-21 15:48 | 33.09073 | -103.60727 | 4489 ft | 379 kts | 175° |
| 2026-04-21 15:49 | 33.06302 | -103.60684 | 4472 ft | 413 kts | 181° |
| 2026-04-21 15:49 | 33.03285 | -103.60898 | 4592 ft | 467 kts | 187° |
| 2026-04-21 15:49 | 32.99752 | -103.61445 | 4465 ft | 549 kts | 187° |
| 2026-04-21 15:49 | 32.95761 | -103.62061 | 4410 ft | 599 kts | 187° |
| 2026-04-21 15:50 | 32.91593 | -103.62670 | 4359 ft | 616 kts | 187° |
| 2026-04-21 15:50 | 32.87302 | -103.63308 | 4316 ft | 622 kts | 188° |
| 2026-04-21 15:50 | 32.83031 | -103.64240 | 4266 ft | 623 kts | 191° |
| 2026-04-21 15:50 | 32.78852 | -103.65536 | 4245 ft | 623 kts | 197° |
| 2026-04-21 15:51 | 32.74654 | -103.66965 | 4128 ft | 627 kts | 195° |
| 2026-04-21 15:51 | 32.70443 | -103.68108 | 4076 ft | 628 kts | 191° |
| 2026-04-21 15:51 | 32.66193 | -103.68823 | 3919 ft | 615 kts | 185° |
| 2026-04-21 15:51 | 32.61863 | -103.69017 | 3852 ft | 624 kts | 181° |
| 2026-04-21 15:52 | 32.57531 | -103.69196 | 3898 ft | 626 kts | 183° |
| 2026-04-21 15:52 | 32.53201 | -103.69506 | 3920 ft | 621 kts | 184° |
| 2026-04-21 15:52 | 32.48907 | -103.69866 | 3960 ft | 624 kts | 184° |
| 2026-04-21 15:52 | 32.44557 | -103.70244 | 4091 ft | 626 kts | 184° |
| 2026-04-21 15:53 | 32.40245 | -103.70641 | 4111 ft | 589 kts | 184° |
| 2026-04-21 15:53 | 32.36091 | -103.71057 | 4048 ft | 607 kts | 185° |
| 2026-04-21 15:53 | 32.31881 | -103.71073 | 4097 ft | 606 kts | 172° |
| 2026-04-21 15:53 | 32.28247 | -103.68685 | 4032 ft | 619 kts | 134° |
| 2026-04-21 15:54 | 32.25675 | -103.64580 | 4063 ft | 625 kts | 126° |
| 2026-04-21 15:54 | 32.23123 | -103.60402 | 3982 ft | 629 kts | 126° |
| 2026-04-21 15:54 | 32.20569 | -103.56187 | 3916 ft | 626 kts | 125° |
| 2026-04-21 15:54 | 32.18686 | -103.51735 | 3932 ft | 617 kts | 95° |
| 2026-04-21 15:55 | 32.18794 | -103.46668 | 3877 ft | 614 kts | 85° |
| 2026-04-21 15:55 | 32.19335 | -103.41680 | 3799 ft | 610 kts | 80° |
| 2026-04-21 15:55 | 32.20350 | -103.36780 | 3649 ft | 622 kts | 75° |
| 2026-04-21 15:55 | 32.21424 | -103.31782 | 3720 ft | 627 kts | 76° |
| 2026-04-21 15:56 | 32.22454 | -103.26812 | 3689 ft | 620 kts | 76° |
| 2026-04-21 15:56 | 32.23252 | -103.21987 | 3732 ft | 601 kts | 84° |
| 2026-04-21 15:56 | 32.23113 | -103.17001 | 3642 ft | 620 kts | 100° |
| 2026-04-21 15:56 | 32.21517 | -103.12315 | 3724 ft | 605 kts | 121° |
| 2026-04-21 15:57 | 32.19299 | -103.08072 | 3671 ft | 606 kts | 126° |
| 2026-04-21 15:57 | 32.16074 | -103.04785 | 3448 ft | 626 kts | 153° |
| 2026-04-21 15:57 | 32.12237 | -103.02732 | 3408 ft | 610 kts | 156° |
| 2026-04-21 15:57 | 32.08323 | -103.00600 | 3444 ft | 622 kts | 155° |
| 2026-04-21 15:58 | 32.04382 | -102.98435 | 3466 ft | 628 kts | 155° |
| 2026-04-21 15:58 | 32.00462 | -102.96264 | 3507 ft | 619 kts | 155° |
| 2026-04-21 15:58 | 31.96639 | -102.94174 | 3542 ft | 608 kts | 155° |
| 2026-04-21 15:58 | 31.92786 | -102.92085 | 3489 ft | 600 kts | 155° |
| 2026-04-21 15:59 | 31.88962 | -102.90057 | 3392 ft | 607 kts | 156° |
| 2026-04-21 15:59 | 31.85058 | -102.87985 | 3373 ft | 616 kts | 155° |
| 2026-04-21 15:59 | 31.81341 | -102.85511 | 3394 ft | 612 kts | 142° |
| 2026-04-21 15:59 | 31.78205 | -102.82072 | 3242 ft | 621 kts | 131° |
| 2026-04-21 16:00 | 31.75436 | -102.78163 | 3268 ft | 627 kts | 125° |
| 2026-04-21 16:00 | 31.73204 | -102.73846 | 3219 ft | 623 kts | 117° |
| 2026-04-21 16:00 | 31.71424 | -102.69188 | 3215 ft | 623 kts | 111° |
| 2026-04-21 16:00 | 31.69679 | -102.64640 | 3265 ft | 585 kts | 114° |
| 2026-04-21 16:01 | 31.68033 | -102.60121 | 3170 ft | 608 kts | 112° |
| 2026-04-21 16:01 | 31.66422 | -102.55510 | 3121 ft | 625 kts | 112° |
| 2026-04-21 16:01 | 31.64592 | -102.50841 | 3189 ft | 630 kts | 115° |
| 2026-04-21 16:01 | 31.62738 | -102.46228 | 3123 ft | 607 kts | 115° |
| 2026-04-21 16:02 | 31.60903 | -102.41716 | 2989 ft | 622 kts | 115° |
| 2026-04-21 16:02 | 31.59076 | -102.37082 | 3046 ft | 630 kts | 115° |
| 2026-04-21 16:02 | 31.57207 | -102.32591 | 3121 ft | 605 kts | 115° |
| 2026-04-21 16:02 | 31.55403 | -102.28036 | 3097 ft | 624 kts | 114° |
| 2026-04-21 16:03 | 31.53681 | -102.23408 | 3250 ft | 625 kts | 109° |
| 2026-04-21 16:03 | 31.52756 | -102.18533 | 3496 ft | 599 kts | 97° |
| 2026-04-21 16:03 | 31.52520 | -102.13682 | 3247 ft | 593 kts | 90° |
| 2026-04-21 16:03 | 31.52462 | -102.08722 | 3195 ft | 621 kts | 90° |
| 2026-04-21 16:04 | 31.52528 | -102.03588 | 3147 ft | 634 kts | 88° |
| 2026-04-21 16:04 | 31.52613 | -101.98493 | 3300 ft | 608 kts | 89° |
| 2026-04-21 16:04 | 31.52673 | -101.93513 | 4097 ft | 606 kts | 88° |
| 2026-04-21 16:04 | 31.52698 | -101.88721 | 5376 ft | 579 kts | 89° |
| 2026-04-21 16:05 | 31.52701 | -101.83870 | 6188 ft | 603 kts | 89° |
| 2026-04-21 16:05 | 31.52670 | -101.78877 | 6141 ft | 621 kts | 91° |
| 2026-04-21 16:05 | 31.52363 | -101.73894 | 6607 ft | 621 kts | 96° |
| 2026-04-21 16:05 | 31.51849 | -101.68842 | 6782 ft | 607 kts | 94° |
| 2026-04-21 16:06 | 31.51763 | -101.63766 | 6809 ft | 635 kts | 88° |
| 2026-04-21 16:06 | 31.51603 | -101.58610 | 6992 ft | 623 kts | 95° |
| 2026-04-21 16:06 | 31.51267 | -101.53557 | 6965 ft | 616 kts | 91° |
| 2026-04-21 16:06 | 31.51132 | -101.48558 | 7220 ft | 615 kts | 92° |
| 2026-04-21 16:07 | 31.50897 | -101.43601 | 7955 ft | 596 kts | 92° |
| 2026-04-21 16:07 | 31.50745 | -101.38658 | 8683 ft | 604 kts | 91° |
| 2026-04-21 16:07 | 31.50526 | -101.33757 | 9492 ft | 601 kts | 91° |
| 2026-04-21 16:07 | 31.50369 | -101.28857 | 10214 ft | 605 kts | 91° |
| 2026-04-21 16:08 | 31.49908 | -101.19058 | 10809 ft | 606 kts | 94° |
| 2026-04-21 16:08 | 31.49099 | -101.14130 | 10901 ft | 612 kts | 103° |
| 2026-04-21 16:08 | 31.48223 | -101.09234 | 10951 ft | 599 kts | 98° |
| 2026-04-21 16:09 | 31.47510 | -101.04331 | 10952 ft | 623 kts | 103° |
| 2026-04-21 16:09 | 31.46625 | -100.99293 | 10971 ft | 636 kts | 100° |
| 2026-04-21 16:09 | 31.45834 | -100.94262 | 10990 ft | 616 kts | 102° |
| 2026-04-21 16:09 | 31.44936 | -100.89394 | 10980 ft | 618 kts | 102° |
| 2026-04-21 16:10 | 31.44121 | -100.84346 | 11001 ft | 654 kts | 101° |
| 2026-04-21 16:10 | 31.43267 | -100.79300 | 11037 ft | 618 kts | 102° |
| 2026-04-21 16:10 | 31.42428 | -100.74395 | 10932 ft | 621 kts | 101° |
| 2026-04-21 16:10 | 31.41590 | -100.69282 | 11030 ft | 649 kts | 102° |
| 2026-04-21 16:11 | 31.40719 | -100.64194 | 11048 ft | 627 kts | 102° |
| 2026-04-21 16:11 | 31.39814 | -100.59180 | 11062 ft | 635 kts | 103° |
| 2026-04-21 16:11 | 31.38959 | -100.54314 | 11075 ft | 592 kts | 101° |
| 2026-04-21 16:11 | 31.38451 | -100.51248 | 11062 ft | 560 kts | 101° |
| 2026-04-21 16:12 | 31.37788 | -100.46802 | 11102 ft | 530 kts | 94° |
| 2026-04-21 16:12 | 31.38562 | -100.41134 | 11114 ft | 524 kts | 74° |
| 2026-04-21 16:12 | 31.39640 | -100.38667 | 11065 ft | 469 kts | 54° |
| 2026-04-21 16:12 | 31.41818 | -100.35691 | 11217 ft | 499 kts | 36° |
| 2026-04-21 16:13 | 31.45013 | -100.34088 | 11120 ft | 452 kts | 12° |
| 2026-04-21 16:13 | 31.48075 | -100.33401 | 11060 ft | 457 kts | 8° |
| 2026-04-21 16:13 | 31.51179 | -100.32865 | 11031 ft | 433 kts | 7° |
| 2026-04-21 16:13 | 31.54177 | -100.32117 | 10952 ft | 465 kts | 11° |
| 2026-04-21 16:14 | 31.57338 | -100.31525 | 11015 ft | 447 kts | 1° |
| 2026-04-21 16:14 | 31.60541 | -100.31560 | 11000 ft | 475 kts | 0° |
| 2026-04-21 16:14 | 31.63662 | -100.31391 | 10985 ft | 427 kts | 1° |
| 2026-04-21 16:14 | 31.66707 | -100.31164 | 10979 ft | 464 kts | 1° |
| 2026-04-21 16:15 | 31.69806 | -100.30956 | 10911 ft | 430 kts | 3° |
| 2026-04-21 16:15 | 31.72982 | -100.30704 | 10907 ft | 455 kts | 1° |
| 2026-04-21 16:15 | 31.76105 | -100.30482 | 10969 ft | 460 kts | 1° |
| 2026-04-21 16:15 | 31.79265 | -100.30255 | 10982 ft | 441 kts | 2° |
| 2026-04-21 16:16 | 31.82301 | -100.29973 | 10959 ft | 461 kts | 2° |
| 2026-04-21 16:16 | 31.85479 | -100.29756 | 10992 ft | 444 kts | 2° |
| 2026-04-21 16:16 | 31.88602 | -100.29507 | 11004 ft | 454 kts | 2° |
| 2026-04-21 16:16 | 31.91737 | -100.29254 | 11008 ft | 434 kts | 2° |
| 2026-04-21 16:17 | 31.94806 | -100.28954 | 11025 ft | 452 kts | 3° |
| 2026-04-21 16:17 | 31.97922 | -100.28676 | 10994 ft | 447 kts | 2° |
| 2026-04-21 16:17 | 32.01076 | -100.28405 | 11015 ft | 458 kts | 2° |
| 2026-04-21 16:17 | 32.04204 | -100.28127 | 11017 ft | 444 kts | 3° |
| 2026-04-21 16:18 | 32.07335 | -100.27858 | 11002 ft | 457 kts | 4° |
| 2026-04-21 16:18 | 32.10484 | -100.27589 | 11004 ft | 457 kts | 3° |
| 2026-04-21 16:18 | 32.13584 | -100.27122 | 10891 ft | 460 kts | 14° |
| 2026-04-21 16:18 | 32.16779 | -100.25426 | 9292 ft | 561 kts | 27° |
| 2026-04-21 16:19 | 32.20390 | -100.23070 | 9271 ft | 612 kts | 28° |
| 2026-04-21 16:19 | 32.24155 | -100.20611 | 9413 ft | 626 kts | 28° |
| 2026-04-21 16:19 | 32.28026 | -100.18142 | 9582 ft | 636 kts | 27° |
| 2026-04-21 16:19 | 32.32056 | -100.15956 | 9729 ft | 638 kts | 19° |
| 2026-04-21 16:20 | 32.36297 | -100.14443 | 9897 ft | 633 kts | 14° |
| 2026-04-21 16:20 | 32.40542 | -100.13052 | 10041 ft | 631 kts | 14° |
| 2026-04-21 16:20 | 32.44714 | -100.11655 | 10114 ft | 631 kts | 15° |
| 2026-04-21 16:20 | 32.48951 | -100.10251 | 10146 ft | 631 kts | 14° |
| 2026-04-21 16:21 | 32.53193 | -100.08867 | 10159 ft | 632 kts | 14° |
| 2026-04-21 16:21 | 32.57443 | -100.07481 | 10160 ft | 632 kts | 14° |
| 2026-04-21 16:21 | 32.61692 | -100.06098 | 10168 ft | 633 kts | 14° |
| 2026-04-21 16:21 | 32.65904 | -100.04739 | 10163 ft | 633 kts | 14° |
| 2026-04-21 16:22 | 32.70231 | -100.03895 | 10144 ft | 630 kts | 0° |
| 2026-04-21 16:22 | 32.74608 | -100.03832 | 9864 ft | 632 kts | 3° |
| 2026-04-21 16:22 | 32.78814 | -100.02798 | 9081 ft | 599 kts | 20° |
| 2026-04-21 16:22 | 32.82269 | -100.00287 | 7453 ft | 574 kts | 45° |
| 2026-04-21 16:23 | 32.82545 | -99.96017 | 4962 ft | 554 kts | 132° |
| 2026-04-21 16:23 | 32.79187 | -99.94475 | 2730 ft | 474 kts | 172° |
| 2026-04-21 16:23 | 32.75991 | -99.93966 | 3645 ft | 424 kts | 173° |
| 2026-04-21 16:23 | 32.73202 | -99.93532 | 5411 ft | 409 kts | 169° |
| 2026-04-21 16:24 | 32.70390 | -99.92730 | 5122 ft | 422 kts | 168° |
| 2026-04-21 16:24 | 32.67373 | -99.91908 | 4883 ft | 474 kts | 168° |
| 2026-04-21 16:24 | 32.64787 | -99.91189 | 4489 ft | 306 kts | 168° |
| 2026-04-21 16:24 | 32.62961 | -99.90636 | 4324 ft | 253 kts | 167° |
| 2026-04-21 16:25 | 32.61093 | -99.90082 | 4285 ft | 299 kts | 169° |
| 2026-04-21 16:25 | 32.58912 | -99.89558 | 4233 ft | 340 kts | 169° |
| 2026-04-21 16:25 | 32.56569 | -99.88988 | 4028 ft | 344 kts | 169° |
| 2026-04-21 16:25 | 32.54349 | -99.88453 | 2739 ft | 308 kts | 169° |
| 2026-04-21 16:26 | 32.52490 | -99.87983 | 2270 ft | 236 kts | 168° |
| 2026-04-21 16:26 | 32.51070 | -99.87616 | 2141 ft | 187 kts | 168° |
| 2026-04-21 16:26 | 32.49881 | -99.87329 | 2307 ft | 175 kts | 169° |
| 2026-04-21 16:26 | 32.48588 | -99.87011 | 2672 ft | 202 kts | 168° |
| 2026-04-21 16:27 | 32.47144 | -99.86635 | 2990 ft | 216 kts | 168° |
| 2026-04-21 16:27 | 32.45748 | -99.86287 | 2663 ft | 192 kts | 170° |
| 2026-04-21 16:27 | 32.44509 | -99.86032 | 2100 ft | 172 kts | 168° |
| 2026-04-21 16:27 | 32.43380 | -99.85759 | 1839 ft | 157 kts | 168° |
| 2026-04-21 16:28 | 32.42521 | -99.85563 | 1841 ft | 98 kts | 168° |
| 2026-04-21 16:28 | 32.41882 | -99.85414 | 1836 ft | 86 kts | 169° |
| 2026-04-21 16:28 | 32.41451 | -99.85314 | 1836 ft | 43 kts | 168° |
| 2026-04-21 16:28 | 32.41254 | -99.85243 | 1841 ft | 23 kts | 128° |
| 2026-04-21 16:29 | 32.41244 | -99.85166 | 1840 ft | 0 kts | 81° |
| 2026-04-21 16:30 | 32.41246 | -99.85152 | 1840 ft | 6 kts | 81° |
| 2026-04-21 16:30 | 32.41259 | -99.85064 | 1840 ft | 14 kts | 77° |
| 2026-04-21 16:30 | 32.41276 | -99.84970 | 1840 ft | 13 kts | 79° |
| 2026-04-21 16:30 | 32.41301 | -99.84897 | 1823 ft | 2 kts | 20° |
| 2026-04-21 16:31 | 32.41339 | -99.84899 | 1816 ft | 11 kts | 351° |
| 2026-04-21 16:31 | 32.41369 | -99.84894 | 1815 ft | 2 kts | 46° |
| 2026-04-21 16:31 | 32.41385 | -99.84847 | 1815 ft | 5 kts | 75° |
| 2026-04-21 16:31 | 32.41388 | -99.84831 | 1815 ft | 0 kts | 79° |